sensor_id;sensor_type;location;lat;lon;timestamp;temperature;humidity
12632;DHT22;6381;45.748;12.106;2023-05-29T00:01:07;20.40;79.40
12632;DHT22;6381;45.748;12.106;2023-05-29T00:03:38;20.40;81.80
12632;DHT22;6381;45.748;12.106;2023-05-29T00:06:08;20.40;82.70
12632;DHT22;6381;45.748;12.106;2023-05-29T00:08:38;20.40;82.10
12632;DHT22;6381;45.748;12.106;2023-05-29T00:11:10;20.20;79.50
12632;DHT22;6381;45.748;12.106;2023-05-29T00:13:40;20.20;81.10
12632;DHT22;6381;45.748;12.106;2023-05-29T00:16:09;20.20;81.00
12632;DHT22;6381;45.748;12.106;2023-05-29T00:18:40;20.30;81.70
12632;DHT22;6381;45.748;12.106;2023-05-29T00:21:13;20.30;82.40
12632;DHT22;6381;45.748;12.106;2023-05-29T00:23:43;20.20;82.00
12632;DHT22;6381;45.748;12.106;2023-05-29T00:26:14;20.30;82.70
12632;DHT22;6381;45.748;12.106;2023-05-29T00:28:51;20.20;83.10
12632;DHT22;6381;45.748;12.106;2023-05-29T00:31:20;20.30;82.90
12632;DHT22;6381;45.748;12.106;2023-05-29T00:33:52;20.30;83.40
12632;DHT22;6381;45.748;12.106;2023-05-29T00:36:22;20.20;81.40
12632;DHT22;6381;45.748;12.106;2023-05-29T00:38:53;20.00;85.00
12632;DHT22;6381;45.748;12.106;2023-05-29T00:41:24;20.20;84.50
12632;DHT22;6381;45.748;12.106;2023-05-29T00:43:54;20.00;82.10
12632;DHT22;6381;45.748;12.106;2023-05-29T00:46:24;20.00;84.90
12632;DHT22;6381;45.748;12.106;2023-05-29T00:48:54;20.10;83.90
12632;DHT22;6381;45.748;12.106;2023-05-29T00:51:24;20.10;82.80
12632;DHT22;6381;45.748;12.106;2023-05-29T00:53:55;20.10;84.00
12632;DHT22;6381;45.748;12.106;2023-05-29T00:56:28;20.20;83.30
12632;DHT22;6381;45.748;12.106;2023-05-29T00:58:58;20.40;83.10
12632;DHT22;6381;45.748;12.106;2023-05-29T01:01:28;20.50;84.00
12632;DHT22;6381;45.748;12.106;2023-05-29T01:04:01;20.60;85.60
12632;DHT22;6381;45.748;12.106;2023-05-29T01:06:32;20.60;87.00
12632;DHT22;6381;45.748;12.106;2023-05-29T01:09:02;20.50;87.60
12632;DHT22;6381;45.748;12.106;2023-05-29T01:11:44;20.60;86.90
12632;DHT22;6381;45.748;12.106;2023-05-29T01:14:21;20.60;88.20
12632;DHT22;6381;45.748;12.106;2023-05-29T01:17:00;20.60;87.70
12632;DHT22;6381;45.748;12.106;2023-05-29T01:19:45;20.50;87.00
12632;DHT22;6381;45.748;12.106;2023-05-29T01:22:25;20.40;87.80
12632;DHT22;6381;45.748;12.106;2023-05-29T01:25:08;20.40;86.90
12632;DHT22;6381;45.748;12.106;2023-05-29T01:27:43;20.50;87.20
12632;DHT22;6381;45.748;12.106;2023-05-29T01:30:15;20.50;86.00
12632;DHT22;6381;45.748;12.106;2023-05-29T01:32:46;20.60;87.40
12632;DHT22;6381;45.748;12.106;2023-05-29T01:35:16;20.60;86.70
12632;DHT22;6381;45.748;12.106;2023-05-29T01:37:46;20.50;86.00
12632;DHT22;6381;45.748;12.106;2023-05-29T01:40:16;20.50;89.70
12632;DHT22;6381;45.748;12.106;2023-05-29T01:42:47;20.60;90.40
12632;DHT22;6381;45.748;12.106;2023-05-29T01:45:18;20.60;90.10
12632;DHT22;6381;45.748;12.106;2023-05-29T01:47:47;20.50;90.00
12632;DHT22;6381;45.748;12.106;2023-05-29T01:50:18;20.60;87.80
12632;DHT22;6381;45.748;12.106;2023-05-29T01:52:51;20.60;88.10
12632;DHT22;6381;45.748;12.106;2023-05-29T01:55:21;20.70;87.40
12632;DHT22;6381;45.748;12.106;2023-05-29T01:57:54;20.50;86.50
12632;DHT22;6381;45.748;12.106;2023-05-29T02:00:24;20.50;85.60
12632;DHT22;6381;45.748;12.106;2023-05-29T02:02:54;20.60;85.40
12632;DHT22;6381;45.748;12.106;2023-05-29T02:05:24;20.50;85.60
12632;DHT22;6381;45.748;12.106;2023-05-29T02:07:54;20.40;84.90
12632;DHT22;6381;45.748;12.106;2023-05-29T02:10:24;20.30;84.90
12632;DHT22;6381;45.748;12.106;2023-05-29T02:12:55;20.40;85.10
12632;DHT22;6381;45.748;12.106;2023-05-29T02:15:25;20.30;84.80
12632;DHT22;6381;45.748;12.106;2023-05-29T02:17:55;20.20;84.90
12632;DHT22;6381;45.748;12.106;2023-05-29T02:20:25;20.40;84.60
12632;DHT22;6381;45.748;12.106;2023-05-29T02:22:55;20.40;86.10
12632;DHT22;6381;45.748;12.106;2023-05-29T02:25:25;20.40;84.30
12632;DHT22;6381;45.748;12.106;2023-05-29T02:27:56;20.40;85.40
12632;DHT22;6381;45.748;12.106;2023-05-29T02:30:26;20.30;84.30
12632;DHT22;6381;45.748;12.106;2023-05-29T02:32:55;20.30;84.60
12632;DHT22;6381;45.748;12.106;2023-05-29T02:35:25;20.40;85.90
12632;DHT22;6381;45.748;12.106;2023-05-29T02:37:55;20.50;84.90
12632;DHT22;6381;45.748;12.106;2023-05-29T02:40:25;20.30;84.60
12632;DHT22;6381;45.748;12.106;2023-05-29T02:42:56;20.30;85.30
12632;DHT22;6381;45.748;12.106;2023-05-29T02:45:26;20.40;84.60
12632;DHT22;6381;45.748;12.106;2023-05-29T02:47:56;20.50;85.50
12632;DHT22;6381;45.748;12.106;2023-05-29T02:50:26;20.60;85.40
12632;DHT22;6381;45.748;12.106;2023-05-29T02:52:57;20.50;85.80
12632;DHT22;6381;45.748;12.106;2023-05-29T02:55:27;20.50;83.70
12632;DHT22;6381;45.748;12.106;2023-05-29T02:57:58;20.50;84.00
12632;DHT22;6381;45.748;12.106;2023-05-29T03:00:29;20.30;85.30
12632;DHT22;6381;45.748;12.106;2023-05-29T03:02:59;20.40;85.50
12632;DHT22;6381;45.748;12.106;2023-05-29T03:05:29;20.50;84.30
12632;DHT22;6381;45.748;12.106;2023-05-29T03:08:00;20.60;86.00
12632;DHT22;6381;45.748;12.106;2023-05-29T03:10:29;20.60;83.50
12632;DHT22;6381;45.748;12.106;2023-05-29T03:13:01;20.50;81.80
12632;DHT22;6381;45.748;12.106;2023-05-29T03:15:34;20.60;81.30
12632;DHT22;6381;45.748;12.106;2023-05-29T03:18:04;20.60;80.40
12632;DHT22;6381;45.748;12.106;2023-05-29T03:20:34;20.60;81.10
12632;DHT22;6381;45.748;12.106;2023-05-29T03:23:06;20.60;81.00
12632;DHT22;6381;45.748;12.106;2023-05-29T03:25:36;20.40;80.10
12632;DHT22;6381;45.748;12.106;2023-05-29T03:28:08;20.50;82.90
12632;DHT22;6381;45.748;12.106;2023-05-29T03:30:39;20.40;81.50
12632;DHT22;6381;45.748;12.106;2023-05-29T03:33:13;20.50;80.90
12632;DHT22;6381;45.748;12.106;2023-05-29T03:35:57;20.30;80.30
12632;DHT22;6381;45.748;12.106;2023-05-29T03:38:28;20.10;82.40
12632;DHT22;6381;45.748;12.106;2023-05-29T03:40:59;20.00;83.80
12632;DHT22;6381;45.748;12.106;2023-05-29T03:43:30;19.90;84.70
12632;DHT22;6381;45.748;12.106;2023-05-29T03:46:01;19.80;85.60
12632;DHT22;6381;45.748;12.106;2023-05-29T03:48:33;19.90;85.00
12632;DHT22;6381;45.748;12.106;2023-05-29T03:51:04;19.90;84.80
12632;DHT22;6381;45.748;12.106;2023-05-29T03:53:37;19.80;85.00
12632;DHT22;6381;45.748;12.106;2023-05-29T03:56:08;19.80;85.90
12632;DHT22;6381;45.748;12.106;2023-05-29T03:58:40;19.70;86.10
12632;DHT22;6381;45.748;12.106;2023-05-29T04:01:11;19.80;85.60
12632;DHT22;6381;45.748;12.106;2023-05-29T04:03:41;19.80;85.20
12632;DHT22;6381;45.748;12.106;2023-05-29T04:06:12;19.90;84.50
12632;DHT22;6381;45.748;12.106;2023-05-29T04:08:41;20.10;84.50
12632;DHT22;6381;45.748;12.106;2023-05-29T04:11:11;20.20;85.00
12632;DHT22;6381;45.748;12.106;2023-05-29T04:13:42;20.30;83.60
12632;DHT22;6381;45.748;12.106;2023-05-29T04:16:12;20.40;85.50
12632;DHT22;6381;45.748;12.106;2023-05-29T04:18:42;20.50;86.70
12632;DHT22;6381;45.748;12.106;2023-05-29T04:21:12;20.60;86.00
12632;DHT22;6381;45.748;12.106;2023-05-29T04:23:42;20.60;86.10
12632;DHT22;6381;45.748;12.106;2023-05-29T04:26:12;20.60;83.50
12632;DHT22;6381;45.748;12.106;2023-05-29T04:28:44;20.70;84.00
12632;DHT22;6381;45.748;12.106;2023-05-29T04:31:13;20.60;80.80
12632;DHT22;6381;45.748;12.106;2023-05-29T04:33:44;20.50;80.90
12632;DHT22;6381;45.748;12.106;2023-05-29T04:36:14;20.30;82.10
12632;DHT22;6381;45.748;12.106;2023-05-29T04:38:46;20.20;83.50
12632;DHT22;6381;45.748;12.106;2023-05-29T04:41:20;20.30;84.90
12632;DHT22;6381;45.748;12.106;2023-05-29T04:43:59;20.30;85.10
12632;DHT22;6381;45.748;12.106;2023-05-29T04:46:38;20.30;85.40
12632;DHT22;6381;45.748;12.106;2023-05-29T04:49:09;20.40;85.10
12632;DHT22;6381;45.748;12.106;2023-05-29T04:51:39;20.50;84.30
12632;DHT22;6381;45.748;12.106;2023-05-29T04:54:11;20.50;84.40
12632;DHT22;6381;45.748;12.106;2023-05-29T04:56:41;20.50;83.60
12632;DHT22;6381;45.748;12.106;2023-05-29T04:59:15;20.60;83.80
12632;DHT22;6381;45.748;12.106;2023-05-29T05:01:45;20.60;83.70
12632;DHT22;6381;45.748;12.106;2023-05-29T05:04:16;20.60;84.10
12632;DHT22;6381;45.748;12.106;2023-05-29T05:06:46;20.60;85.00
12632;DHT22;6381;45.748;12.106;2023-05-29T05:09:16;20.70;84.90
12632;DHT22;6381;45.748;12.106;2023-05-29T05:11:46;20.80;84.50
12632;DHT22;6381;45.748;12.106;2023-05-29T05:14:19;20.90;84.60
12632;DHT22;6381;45.748;12.106;2023-05-29T05:16:49;20.90;84.90
12632;DHT22;6381;45.748;12.106;2023-05-29T05:19:19;20.90;84.20
12632;DHT22;6381;45.748;12.106;2023-05-29T05:21:49;21.00;85.20
12632;DHT22;6381;45.748;12.106;2023-05-29T05:24:22;21.00;83.50
12632;DHT22;6381;45.748;12.106;2023-05-29T05:26:52;21.10;83.80
12632;DHT22;6381;45.748;12.106;2023-05-29T05:29:24;21.20;83.20
12632;DHT22;6381;45.748;12.106;2023-05-29T05:31:54;21.20;81.40
12632;DHT22;6381;45.748;12.106;2023-05-29T05:34:25;21.10;81.10
12632;DHT22;6381;45.748;12.106;2023-05-29T05:36:55;21.10;82.40
12632;DHT22;6381;45.748;12.106;2023-05-29T05:39:25;21.10;82.00
12632;DHT22;6381;45.748;12.106;2023-05-29T05:41:55;21.10;81.60
12632;DHT22;6381;45.748;12.106;2023-05-29T05:44:43;21.10;81.70
12632;DHT22;6381;45.748;12.106;2023-05-29T05:47:14;21.10;80.50
12632;DHT22;6381;45.748;12.106;2023-05-29T05:49:44;21.10;80.80
12632;DHT22;6381;45.748;12.106;2023-05-29T05:52:15;21.20;80.90
12632;DHT22;6381;45.748;12.106;2023-05-29T05:54:46;21.40;80.70
12632;DHT22;6381;45.748;12.106;2023-05-29T05:57:17;21.50;80.10
12632;DHT22;6381;45.748;12.106;2023-05-29T05:59:49;21.60;79.30
12632;DHT22;6381;45.748;12.106;2023-05-29T06:02:19;21.70;80.90
12632;DHT22;6381;45.748;12.106;2023-05-29T06:04:51;21.90;82.70
12632;DHT22;6381;45.748;12.106;2023-05-29T06:07:22;22.10;78.50
12632;DHT22;6381;45.748;12.106;2023-05-29T06:09:51;22.20;75.70
12632;DHT22;6381;45.748;12.106;2023-05-29T06:12:22;22.30;75.50
12632;DHT22;6381;45.748;12.106;2023-05-29T06:15:03;22.30;73.80
12632;DHT22;6381;45.748;12.106;2023-05-29T06:17:35;22.40;73.60
12632;DHT22;6381;45.748;12.106;2023-05-29T06:20:05;22.40;73.00
12632;DHT22;6381;45.748;12.106;2023-05-29T06:22:38;22.30;71.80
12632;DHT22;6381;45.748;12.106;2023-05-29T06:25:08;22.50;70.70
12632;DHT22;6381;45.748;12.106;2023-05-29T06:27:42;22.50;67.50
12632;DHT22;6381;45.748;12.106;2023-05-29T06:30:15;22.50;68.50
12632;DHT22;6381;45.748;12.106;2023-05-29T06:32:46;22.60;67.90
12632;DHT22;6381;45.748;12.106;2023-05-29T06:35:18;22.50;65.60
12632;DHT22;6381;45.748;12.106;2023-05-29T06:37:50;22.60;65.50
12632;DHT22;6381;45.748;12.106;2023-05-29T06:40:20;22.70;66.00
12632;DHT22;6381;45.748;12.106;2023-05-29T06:42:50;22.80;66.40
12632;DHT22;6381;45.748;12.106;2023-05-29T06:45:37;22.80;65.80
12632;DHT22;6381;45.748;12.106;2023-05-29T06:48:07;22.90;65.90
12632;DHT22;6381;45.748;12.106;2023-05-29T06:50:39;22.90;65.30
12632;DHT22;6381;45.748;12.106;2023-05-29T06:53:27;22.90;64.90
12632;DHT22;6381;45.748;12.106;2023-05-29T06:55:58;22.90;63.60
12632;DHT22;6381;45.748;12.106;2023-05-29T06:58:30;23.00;63.80
12632;DHT22;6381;45.748;12.106;2023-05-29T07:01:02;23.10;62.70
12632;DHT22;6381;45.748;12.106;2023-05-29T07:03:40;23.10;63.60
12632;DHT22;6381;45.748;12.106;2023-05-29T07:06:10;23.10;62.50
12632;DHT22;6381;45.748;12.106;2023-05-29T07:08:40;23.20;63.80
12632;DHT22;6381;45.748;12.106;2023-05-29T07:11:11;23.20;62.70
12632;DHT22;6381;45.748;12.106;2023-05-29T07:13:42;23.20;62.70
12632;DHT22;6381;45.748;12.106;2023-05-29T07:16:13;23.30;60.80
12632;DHT22;6381;45.748;12.106;2023-05-29T07:18:55;23.40;63.30
12632;DHT22;6381;45.748;12.106;2023-05-29T07:21:26;23.40;62.30
12632;DHT22;6381;45.748;12.106;2023-05-29T07:23:59;23.40;61.10
12632;DHT22;6381;45.748;12.106;2023-05-29T07:26:29;23.50;62.90
12632;DHT22;6381;45.748;12.106;2023-05-29T07:28:58;23.60;63.10
12632;DHT22;6381;45.748;12.106;2023-05-29T07:31:34;23.60;61.30
12632;DHT22;6381;45.748;12.106;2023-05-29T07:34:04;23.80;63.30
12632;DHT22;6381;45.748;12.106;2023-05-29T07:36:34;23.70;61.10
12632;DHT22;6381;45.748;12.106;2023-05-29T07:39:08;23.60;62.60
12632;DHT22;6381;45.748;12.106;2023-05-29T07:41:39;23.60;61.80
12632;DHT22;6381;45.748;12.106;2023-05-29T07:44:10;23.70;61.90
12632;DHT22;6381;45.748;12.106;2023-05-29T07:46:43;23.80;60.20
12632;DHT22;6381;45.748;12.106;2023-05-29T07:49:29;23.90;61.90
12632;DHT22;6381;45.748;12.106;2023-05-29T07:51:59;24.00;60.80
12632;DHT22;6381;45.748;12.106;2023-05-29T07:54:30;24.00;60.20
12632;DHT22;6381;45.748;12.106;2023-05-29T07:57:02;23.90;59.60
12632;DHT22;6381;45.748;12.106;2023-05-29T07:59:41;24.00;60.60
12632;DHT22;6381;45.748;12.106;2023-05-29T08:02:13;24.00;58.50
12632;DHT22;6381;45.748;12.106;2023-05-29T08:05:00;24.10;58.50
12632;DHT22;6381;45.748;12.106;2023-05-29T08:07:31;24.30;59.20
12632;DHT22;6381;45.748;12.106;2023-05-29T08:10:01;24.50;57.50
12632;DHT22;6381;45.748;12.106;2023-05-29T08:12:34;24.50;57.20
12632;DHT22;6381;45.748;12.106;2023-05-29T08:15:05;24.50;56.80
12632;DHT22;6381;45.748;12.106;2023-05-29T08:17:39;24.60;56.80
12632;DHT22;6381;45.748;12.106;2023-05-29T08:20:27;24.60;55.00
12632;DHT22;6381;45.748;12.106;2023-05-29T08:22:57;24.60;54.50
12632;DHT22;6381;45.748;12.106;2023-05-29T08:25:27;24.60;54.80
12632;DHT22;6381;45.748;12.106;2023-05-29T08:27:59;24.70;55.30
12632;DHT22;6381;45.748;12.106;2023-05-29T08:30:30;24.80;53.70
12632;DHT22;6381;45.748;12.106;2023-05-29T08:33:01;24.90;53.50
12632;DHT22;6381;45.748;12.106;2023-05-29T08:35:31;25.30;52.30
12632;DHT22;6381;45.748;12.106;2023-05-29T08:38:01;25.30;52.60
12632;DHT22;6381;45.748;12.106;2023-05-29T08:40:32;25.40;52.70
12632;DHT22;6381;45.748;12.106;2023-05-29T08:43:05;25.20;52.50
12632;DHT22;6381;45.748;12.106;2023-05-29T08:45:42;25.30;52.10
12632;DHT22;6381;45.748;12.106;2023-05-29T08:48:14;25.30;51.70
12632;DHT22;6381;45.748;12.106;2023-05-29T08:50:45;25.20;49.70
12632;DHT22;6381;45.748;12.106;2023-05-29T08:53:15;25.60;51.70
12632;DHT22;6381;45.748;12.106;2023-05-29T08:55:47;25.50;52.40
12632;DHT22;6381;45.748;12.106;2023-05-29T08:58:20;25.60;51.80
12632;DHT22;6381;45.748;12.106;2023-05-29T09:00:50;25.70;50.90
12632;DHT22;6381;45.748;12.106;2023-05-29T09:03:24;25.50;51.30
12632;DHT22;6381;45.748;12.106;2023-05-29T09:05:59;25.60;52.20
12632;DHT22;6381;45.748;12.106;2023-05-29T09:08:32;25.60;50.90
12632;DHT22;6381;45.748;12.106;2023-05-29T09:11:02;25.90;52.20
12632;DHT22;6381;45.748;12.106;2023-05-29T09:13:32;25.80;50.70
12632;DHT22;6381;45.748;12.106;2023-05-29T09:16:04;25.80;49.40
12632;DHT22;6381;45.748;12.106;2023-05-29T09:18:38;25.80;50.00
12632;DHT22;6381;45.748;12.106;2023-05-29T09:21:09;25.90;50.60
12632;DHT22;6381;45.748;12.106;2023-05-29T09:23:40;25.80;48.50
12632;DHT22;6381;45.748;12.106;2023-05-29T09:26:14;25.90;45.20
12632;DHT22;6381;45.748;12.106;2023-05-29T09:28:46;25.90;49.40
12632;DHT22;6381;45.748;12.106;2023-05-29T09:31:16;26.00;45.80
12632;DHT22;6381;45.748;12.106;2023-05-29T09:33:49;25.80;48.00
12632;DHT22;6381;45.748;12.106;2023-05-29T09:36:22;26.10;48.90
12632;DHT22;6381;45.748;12.106;2023-05-29T09:38:54;26.20;43.50
12632;DHT22;6381;45.748;12.106;2023-05-29T09:41:42;26.40;47.50
12632;DHT22;6381;45.748;12.106;2023-05-29T09:44:13;26.40;48.90
12632;DHT22;6381;45.748;12.106;2023-05-29T09:46:43;26.50;48.50
12632;DHT22;6381;45.748;12.106;2023-05-29T09:49:22;26.40;45.90
12632;DHT22;6381;45.748;12.106;2023-05-29T09:51:53;26.60;46.00
12632;DHT22;6381;45.748;12.106;2023-05-29T09:54:27;26.50;44.50
12632;DHT22;6381;45.748;12.106;2023-05-29T09:56:59;26.50;46.00
12632;DHT22;6381;45.748;12.106;2023-05-29T09:59:32;26.60;44.60
12632;DHT22;6381;45.748;12.106;2023-05-29T10:02:04;26.80;45.80
12632;DHT22;6381;45.748;12.106;2023-05-29T10:04:37;26.80;44.10
12632;DHT22;6381;45.748;12.106;2023-05-29T10:07:10;26.80;46.20
12632;DHT22;6381;45.748;12.106;2023-05-29T10:09:44;26.90;46.80
12632;DHT22;6381;45.748;12.106;2023-05-29T10:12:16;26.90;46.20
12632;DHT22;6381;45.748;12.106;2023-05-29T10:14:51;27.20;44.30
12632;DHT22;6381;45.748;12.106;2023-05-29T10:17:26;27.30;43.10
12632;DHT22;6381;45.748;12.106;2023-05-29T10:20:02;26.80;38.60
12632;DHT22;6381;45.748;12.106;2023-05-29T10:22:37;26.50;40.40
12632;DHT22;6381;45.748;12.106;2023-05-29T10:25:10;27.00;43.50
12632;DHT22;6381;45.748;12.106;2023-05-29T10:27:41;27.40;46.60
12632;DHT22;6381;45.748;12.106;2023-05-29T10:30:19;27.60;44.30
12632;DHT22;6381;45.748;12.106;2023-05-29T10:33:20;27.70;43.10
12632;DHT22;6381;45.748;12.106;2023-05-29T10:36:03;27.90;45.90
12632;DHT22;6381;45.748;12.106;2023-05-29T10:38:34;27.70;42.80
12632;DHT22;6381;45.748;12.106;2023-05-29T10:41:32;27.90;39.70
12632;DHT22;6381;45.748;12.106;2023-05-29T10:44:39;27.70;43.20
12632;DHT22;6381;45.748;12.106;2023-05-29T10:47:23;28.00;42.70
12632;DHT22;6381;45.748;12.106;2023-05-29T10:49:59;28.00;40.80
12632;DHT22;6381;45.748;12.106;2023-05-29T10:52:32;27.90;39.70
12632;DHT22;6381;45.748;12.106;2023-05-29T10:55:04;27.80;41.70
12632;DHT22;6381;45.748;12.106;2023-05-29T10:57:34;28.00;41.00
12632;DHT22;6381;45.748;12.106;2023-05-29T11:00:08;27.90;41.50
12632;DHT22;6381;45.748;12.106;2023-05-29T11:02:42;28.30;38.10
12632;DHT22;6381;45.748;12.106;2023-05-29T11:05:21;28.10;39.40
12632;DHT22;6381;45.748;12.106;2023-05-29T11:08:01;28.10;40.60
12632;DHT22;6381;45.748;12.106;2023-05-29T11:10:44;28.20;38.20
12632;DHT22;6381;45.748;12.106;2023-05-29T11:13:32;28.40;38.00
12632;DHT22;6381;45.748;12.106;2023-05-29T11:16:12;28.50;38.00
12632;DHT22;6381;45.748;12.106;2023-05-29T11:18:43;28.50;36.00
12632;DHT22;6381;45.748;12.106;2023-05-29T11:21:32;28.60;34.00
12632;DHT22;6381;45.748;12.106;2023-05-29T11:24:04;28.50;40.20
12632;DHT22;6381;45.748;12.106;2023-05-29T11:26:37;29.00;41.10
12632;DHT22;6381;45.748;12.106;2023-05-29T11:29:08;28.90;38.50
12632;DHT22;6381;45.748;12.106;2023-05-29T11:31:40;28.50;33.70
12632;DHT22;6381;45.748;12.106;2023-05-29T11:34:15;28.70;37.70
12632;DHT22;6381;45.748;12.106;2023-05-29T11:36:45;29.00;38.20
12632;DHT22;6381;45.748;12.106;2023-05-29T11:39:19;28.90;39.10
12632;DHT22;6381;45.748;12.106;2023-05-29T11:41:51;29.10;36.80
12632;DHT22;6381;45.748;12.106;2023-05-29T11:44:24;29.30;38.90
12632;DHT22;6381;45.748;12.106;2023-05-29T11:47:01;29.30;37.20
12632;DHT22;6381;45.748;12.106;2023-05-29T11:49:58;29.40;37.80
12632;DHT22;6381;45.748;12.106;2023-05-29T11:52:28;29.30;35.40
12632;DHT22;6381;45.748;12.106;2023-05-29T11:55:07;29.30;36.50
12632;DHT22;6381;45.748;12.106;2023-05-29T11:57:37;29.80;35.40
12632;DHT22;6381;45.748;12.106;2023-05-29T12:00:07;30.00;37.30
12632;DHT22;6381;45.748;12.106;2023-05-29T12:02:39;29.60;31.20
12632;DHT22;6381;45.748;12.106;2023-05-29T12:05:11;29.30;32.10
12632;DHT22;6381;45.748;12.106;2023-05-29T12:07:52;29.20;31.90
12632;DHT22;6381;45.748;12.106;2023-05-29T12:10:26;29.60;31.80
12632;DHT22;6381;45.748;12.106;2023-05-29T12:12:59;30.30;35.40
12632;DHT22;6381;45.748;12.106;2023-05-29T12:15:29;30.50;32.60
12632;DHT22;6381;45.748;12.106;2023-05-29T12:18:01;30.50;30.90
12632;DHT22;6381;45.748;12.106;2023-05-29T12:20:31;30.60;34.60
12632;DHT22;6381;45.748;12.106;2023-05-29T12:23:07;30.50;33.60
12632;DHT22;6381;45.748;12.106;2023-05-29T12:25:38;30.60;30.70
12632;DHT22;6381;45.748;12.106;2023-05-29T12:28:16;30.90;33.80
12632;DHT22;6381;45.748;12.106;2023-05-29T12:30:49;30.60;32.70
12632;DHT22;6381;45.748;12.106;2023-05-29T12:33:28;30.30;31.80
12632;DHT22;6381;45.748;12.106;2023-05-29T12:36:04;30.40;31.90
12632;DHT22;6381;45.748;12.106;2023-05-29T12:38:46;30.40;30.70
12632;DHT22;6381;45.748;12.106;2023-05-29T12:41:25;30.70;31.20
12632;DHT22;6381;45.748;12.106;2023-05-29T12:43:56;31.20;32.60
12632;DHT22;6381;45.748;12.106;2023-05-29T12:46:26;31.30;32.40
12632;DHT22;6381;45.748;12.106;2023-05-29T12:49:11;31.40;32.80
12632;DHT22;6381;45.748;12.106;2023-05-29T12:51:43;31.10;30.90
12632;DHT22;6381;45.748;12.106;2023-05-29T12:54:19;31.10;29.60
12632;DHT22;6381;45.748;12.106;2023-05-29T12:57:15;31.10;32.00
12632;DHT22;6381;45.748;12.106;2023-05-29T12:59:45;31.40;31.10
12632;DHT22;6381;45.748;12.106;2023-05-29T13:02:15;31.60;30.20
12632;DHT22;6381;45.748;12.106;2023-05-29T13:04:46;31.50;33.90
12632;DHT22;6381;45.748;12.106;2023-05-29T13:07:16;31.40;33.60
12632;DHT22;6381;45.748;12.106;2023-05-29T13:09:46;31.70;30.30
12632;DHT22;6381;45.748;12.106;2023-05-29T13:12:19;31.70;30.00
12632;DHT22;6381;45.748;12.106;2023-05-29T13:14:50;31.30;29.30
12632;DHT22;6381;45.748;12.106;2023-05-29T13:17:20;32.00;30.90
12632;DHT22;6381;45.748;12.106;2023-05-29T13:19:51;32.20;27.70
12632;DHT22;6381;45.748;12.106;2023-05-29T13:22:24;32.10;30.50
12632;DHT22;6381;45.748;12.106;2023-05-29T13:25:00;32.40;28.80
12632;DHT22;6381;45.748;12.106;2023-05-29T13:27:31;32.30;31.70
12632;DHT22;6381;45.748;12.106;2023-05-29T13:30:02;31.90;29.10
12632;DHT22;6381;45.748;12.106;2023-05-29T13:32:33;31.00;30.10
12632;DHT22;6381;45.748;12.106;2023-05-29T13:35:05;31.40;30.20
12632;DHT22;6381;45.748;12.106;2023-05-29T13:37:36;31.90;30.90
12632;DHT22;6381;45.748;12.106;2023-05-29T13:40:08;31.70;29.30
12632;DHT22;6381;45.748;12.106;2023-05-29T13:42:41;31.00;29.30
12632;DHT22;6381;45.748;12.106;2023-05-29T13:45:11;30.40;32.00
12632;DHT22;6381;45.748;12.106;2023-05-29T13:47:42;30.70;31.60
12632;DHT22;6381;45.748;12.106;2023-05-29T13:50:12;30.10;31.50
12632;DHT22;6381;45.748;12.106;2023-05-29T13:52:42;30.10;31.60
12632;DHT22;6381;45.748;12.106;2023-05-29T13:55:11;30.30;31.90
12632;DHT22;6381;45.748;12.106;2023-05-29T13:57:45;30.90;32.20
12632;DHT22;6381;45.748;12.106;2023-05-29T14:00:16;30.70;32.40
12632;DHT22;6381;45.748;12.106;2023-05-29T14:02:47;30.20;31.70
12632;DHT22;6381;45.748;12.106;2023-05-29T14:05:17;30.40;30.00
12632;DHT22;6381;45.748;12.106;2023-05-29T14:07:47;29.70;29.70
12632;DHT22;6381;45.748;12.106;2023-05-29T14:10:16;29.40;30.00
12632;DHT22;6381;45.748;12.106;2023-05-29T14:12:49;29.30;30.20
12632;DHT22;6381;45.748;12.106;2023-05-29T14:15:22;29.10;31.80
12632;DHT22;6381;45.748;12.106;2023-05-29T14:17:51;29.00;32.40
12632;DHT22;6381;45.748;12.106;2023-05-29T14:20:21;28.80;34.10
12632;DHT22;6381;45.748;12.106;2023-05-29T14:22:52;28.80;32.50
12632;DHT22;6381;45.748;12.106;2023-05-29T14:25:23;28.90;32.40
12632;DHT22;6381;45.748;12.106;2023-05-29T14:27:54;29.10;33.10
12632;DHT22;6381;45.748;12.106;2023-05-29T14:30:25;28.40;29.70
12632;DHT22;6381;45.748;12.106;2023-05-29T14:32:55;28.30;30.30
12632;DHT22;6381;45.748;12.106;2023-05-29T14:35:26;28.30;29.60
12632;DHT22;6381;45.748;12.106;2023-05-29T14:38:04;28.00;29.70
12632;DHT22;6381;45.748;12.106;2023-05-29T14:40:34;28.30;29.70
12632;DHT22;6381;45.748;12.106;2023-05-29T14:43:08;28.50;29.90
12632;DHT22;6381;45.748;12.106;2023-05-29T14:45:38;28.70;33.80
12632;DHT22;6381;45.748;12.106;2023-05-29T14:48:08;28.80;33.60
12632;DHT22;6381;45.748;12.106;2023-05-29T14:50:40;28.70;33.50
12632;DHT22;6381;45.748;12.106;2023-05-29T14:53:09;28.60;33.70
12632;DHT22;6381;45.748;12.106;2023-05-29T14:55:39;28.90;33.80
12632;DHT22;6381;45.748;12.106;2023-05-29T14:58:11;29.10;34.40
12632;DHT22;6381;45.748;12.106;2023-05-29T15:00:44;29.50;32.80
12632;DHT22;6381;45.748;12.106;2023-05-29T15:03:14;29.60;32.70
12632;DHT22;6381;45.748;12.106;2023-05-29T15:05:44;28.50;34.30
12632;DHT22;6381;45.748;12.106;2023-05-29T15:08:15;28.40;35.30
12632;DHT22;6381;45.748;12.106;2023-05-29T15:10:46;28.30;36.60
12632;DHT22;6381;45.748;12.106;2023-05-29T15:13:20;28.30;36.40
12632;DHT22;6381;45.748;12.106;2023-05-29T15:15:50;27.30;36.80
12632;DHT22;6381;45.748;12.106;2023-05-29T15:18:20;27.00;37.70
12632;DHT22;6381;45.748;12.106;2023-05-29T15:20:52;27.40;39.20
12632;DHT22;6381;45.748;12.106;2023-05-29T15:23:22;27.30;38.90
12632;DHT22;6381;45.748;12.106;2023-05-29T15:25:52;27.50;39.00
12632;DHT22;6381;45.748;12.106;2023-05-29T15:28:24;27.30;38.80
12632;DHT22;6381;45.748;12.106;2023-05-29T15:30:53;27.10;39.40
12632;DHT22;6381;45.748;12.106;2023-05-29T15:33:24;27.00;39.30
12632;DHT22;6381;45.748;12.106;2023-05-29T15:35:58;26.50;39.00
12632;DHT22;6381;45.748;12.106;2023-05-29T15:38:33;26.50;40.10
12632;DHT22;6381;45.748;12.106;2023-05-29T15:41:03;26.20;40.20
12632;DHT22;6381;45.748;12.106;2023-05-29T15:43:34;26.20;40.90
12632;DHT22;6381;45.748;12.106;2023-05-29T15:46:05;26.50;41.00
12632;DHT22;6381;45.748;12.106;2023-05-29T15:48:36;26.50;41.10
12632;DHT22;6381;45.748;12.106;2023-05-29T15:51:06;26.60;41.20
12632;DHT22;6381;45.748;12.106;2023-05-29T15:53:36;26.50;41.00
12632;DHT22;6381;45.748;12.106;2023-05-29T15:56:06;26.40;41.10
12632;DHT22;6381;45.748;12.106;2023-05-29T15:58:37;26.20;40.20
12632;DHT22;6381;45.748;12.106;2023-05-29T16:01:07;26.20;41.40
12632;DHT22;6381;45.748;12.106;2023-05-29T16:03:56;26.30;41.20